sensor_id;sensor_type;location;lat;lon;timestamp;pressure;altitude;pressure_sealevel;temperature
13219;BMP180;6674;49.152;11.918;2023-07-31T00:00:13;96041.31;;;15.48
13219;BMP180;6674;49.152;11.918;2023-07-31T00:02:41;96038.94;;;15.41
13219;BMP180;6674;49.152;11.918;2023-07-31T00:05:09;96037.84;;;15.37
13219;BMP180;6674;49.152;11.918;2023-07-31T00:07:36;96034.47;;;15.37
13219;BMP180;6674;49.152;11.918;2023-07-31T00:10:03;96040.38;;;15.32
13219;BMP180;6674;49.152;11.918;2023-07-31T00:12:32;96043.47;;;15.29
13219;BMP180;6674;49.152;11.918;2023-07-31T00:14:58;96042.38;;;15.25
13219;BMP180;6674;49.152;11.918;2023-07-31T00:17:25;96045.22;;;15.24
13219;BMP180;6674;49.152;11.918;2023-07-31T00:19:52;96037.66;;;15.22
13219;BMP180;6674;49.152;11.918;2023-07-31T00:22:19;96045.94;;;15.19
13219;BMP180;6674;49.152;11.918;2023-07-31T00:24:46;96040.66;;;15.14
13219;BMP180;6674;49.152;11.918;2023-07-31T00:27:13;96036.41;;;15.08
13219;BMP180;6674;49.152;11.918;2023-07-31T00:29:39;96037.94;;;15.05
13219;BMP180;6674;49.152;11.918;2023-07-31T00:32:07;96046.19;;;15.02
13219;BMP180;6674;49.152;11.918;2023-07-31T00:34:33;96050.31;;;14.98
13219;BMP180;6674;49.152;11.918;2023-07-31T00:37:00;96030.41;;;14.87
13219;BMP180;6674;49.152;11.918;2023-07-31T00:39:30;96044.91;;;14.83
13219;BMP180;6674;49.152;11.918;2023-07-31T00:41:56;96049.84;;;14.84
13219;BMP180;6674;49.152;11.918;2023-07-31T00:44:23;96037.75;;;14.73
13219;BMP180;6674;49.152;11.918;2023-07-31T00:46:49;96037.75;;;14.73
13219;BMP180;6674;49.152;11.918;2023-07-31T00:49:16;96036.41;;;14.71
13219;BMP180;6674;49.152;11.918;2023-07-31T00:51:43;96031.69;;;14.68
13219;BMP180;6674;49.152;11.918;2023-07-31T00:54:10;96026.50;;;14.68
13219;BMP180;6674;49.152;11.918;2023-07-31T00:56:40;96029.25;;;14.62
13219;BMP180;6674;49.152;11.918;2023-07-31T00:59:07;96028.97;;;14.58
13219;BMP180;6674;49.152;11.918;2023-07-31T01:01:33;96023.75;;;14.58
13219;BMP180;6674;49.152;11.918;2023-07-31T01:04:00;96020.63;;;14.56
13219;BMP180;6674;49.152;11.918;2023-07-31T01:06:31;96019.16;;;14.60
13219;BMP180;6674;49.152;11.918;2023-07-31T01:09:03;96018.25;;;14.55
13219;BMP180;6674;49.152;11.918;2023-07-31T01:11:31;96019.38;;;14.59
13219;BMP180;6674;49.152;11.918;2023-07-31T01:14:02;96028.47;;;14.61
13219;BMP180;6674;49.152;11.918;2023-07-31T01:16:28;96031.09;;;14.61
13219;BMP180;6674;49.152;11.918;2023-07-31T01:18:55;96017.09;;;14.62
13219;BMP180;6674;49.152;11.918;2023-07-31T01:21:30;96009.00;;;14.59
13219;BMP180;6674;49.152;11.918;2023-07-31T01:24:21;96022.28;;;14.62
13219;BMP180;6674;49.152;11.918;2023-07-31T01:26:55;96015.28;;;14.63
13219;BMP180;6674;49.152;11.918;2023-07-31T01:29:26;96004.66;;;14.64
13219;BMP180;6674;49.152;11.918;2023-07-31T01:31:56;96009.84;;;14.64
13219;BMP180;6674;49.152;11.918;2023-07-31T01:34:25;95994.50;;;14.63
13219;BMP180;6674;49.152;11.918;2023-07-31T01:36:52;96006.16;;;14.60
13219;BMP180;6674;49.152;11.918;2023-07-31T01:39:20;96007.41;;;14.58
13219;BMP180;6674;49.152;11.918;2023-07-31T01:41:47;96004.81;;;14.58
13219;BMP180;6674;49.152;11.918;2023-07-31T01:44:15;96003.00;;;14.58
13219;BMP180;6674;49.152;11.918;2023-07-31T01:46:41;96001.44;;;14.57
13219;BMP180;6674;49.152;11.918;2023-07-31T01:49:08;95985.56;;;14.54
13219;BMP180;6674;49.152;11.918;2023-07-31T01:51:35;95987.94;;;14.55
13219;BMP180;6674;49.152;11.918;2023-07-31T01:54:02;95995.94;;;14.54
13219;BMP180;6674;49.152;11.918;2023-07-31T01:56:29;95993.41;;;14.59
13219;BMP180;6674;49.152;11.918;2023-07-31T01:58:55;95976.50;;;14.56
13219;BMP180;6674;49.152;11.918;2023-07-31T02:01:23;95991.06;;;14.57
13219;BMP180;6674;49.152;11.918;2023-07-31T02:03:50;95988.78;;;14.61
13219;BMP180;6674;49.152;11.918;2023-07-31T02:06:16;95994.19;;;14.59
13219;BMP180;6674;49.152;11.918;2023-07-31T02:08:43;95984.28;;;14.56
13219;BMP180;6674;49.152;11.918;2023-07-31T02:11:10;95987.34;;;14.53
13219;BMP180;6674;49.152;11.918;2023-07-31T02:13:36;95976.03;;;14.59
13219;BMP180;6674;49.152;11.918;2023-07-31T02:16:03;95981.16;;;14.54
13219;BMP180;6674;49.152;11.918;2023-07-31T02:18:31;95973.72;;;14.63
13219;BMP180;6674;49.152;11.918;2023-07-31T02:20:58;95975.47;;;14.57
13219;BMP180;6674;49.152;11.918;2023-07-31T02:23:24;95967.16;;;14.55
13219;BMP180;6674;49.152;11.918;2023-07-31T02:25:51;95963.53;;;14.56
13219;BMP180;6674;49.152;11.918;2023-07-31T02:28:17;95971.91;;;14.63
13219;BMP180;6674;49.152;11.918;2023-07-31T02:30:45;95975.63;;;14.67
13219;BMP180;6674;49.152;11.918;2023-07-31T02:33:11;95967.59;;;14.68
13219;BMP180;6674;49.152;11.918;2023-07-31T02:35:39;95969.88;;;14.65
13219;BMP180;6674;49.152;11.918;2023-07-31T02:38:06;95970.19;;;14.68
13219;BMP180;6674;49.152;11.918;2023-07-31T02:40:32;95958.81;;;14.74
13219;BMP180;6674;49.152;11.918;2023-07-31T02:42:59;95957.03;;;14.75
13219;BMP180;6674;49.152;11.918;2023-07-31T02:45:26;95956.47;;;14.73
13219;BMP180;6674;49.152;11.918;2023-07-31T02:47:52;95948.69;;;14.73
13219;BMP180;6674;49.152;11.918;2023-07-31T02:50:19;95961.75;;;14.78
13219;BMP180;6674;49.152;11.918;2023-07-31T02:52:47;95957.50;;;14.72
13219;BMP180;6674;49.152;11.918;2023-07-31T02:55:13;95959.69;;;14.80
13219;BMP180;6674;49.152;11.918;2023-07-31T02:57:40;95956.81;;;14.76
13219;BMP180;6674;49.152;11.918;2023-07-31T03:00:07;95959.16;;;14.78
13219;BMP180;6674;49.152;11.918;2023-07-31T03:02:34;95969.16;;;14.69
13219;BMP180;6674;49.152;11.918;2023-07-31T03:05:02;95964.75;;;14.70
13219;BMP180;6674;49.152;11.918;2023-07-31T03:07:29;95953.56;;;14.69
13219;BMP180;6674;49.152;11.918;2023-07-31T03:09:57;95962.63;;;14.67
13219;BMP180;6674;49.152;11.918;2023-07-31T03:12:27;95961.28;;;14.65
13219;BMP180;6674;49.152;11.918;2023-07-31T03:14:54;95965.56;;;14.54
13219;BMP180;6674;49.152;11.918;2023-07-31T03:17:20;95965.09;;;14.57
13219;BMP180;6674;49.152;11.918;2023-07-31T03:19:47;95965.56;;;14.54
13219;BMP180;6674;49.152;11.918;2023-07-31T03:22:14;95962.97;;;14.54
13219;BMP180;6674;49.152;11.918;2023-07-31T03:24:40;95963.03;;;14.59
13219;BMP180;6674;49.152;11.918;2023-07-31T03:27:08;95958.31;;;14.56
13219;BMP180;6674;49.152;11.918;2023-07-31T03:29:35;95959.28;;;14.50
13219;BMP180;6674;49.152;11.918;2023-07-31T03:32:02;95959.28;;;14.50
13219;BMP180;6674;49.152;11.918;2023-07-31T03:34:28;95961.88;;;14.50
13219;BMP180;6674;49.152;11.918;2023-07-31T03:36:57;95961.16;;;14.55
13219;BMP180;6674;49.152;11.918;2023-07-31T03:39:23;95965.56;;;14.54
13219;BMP180;6674;49.152;11.918;2023-07-31T03:41:50;95960.69;;;14.58
13219;BMP180;6674;49.152;11.918;2023-07-31T03:44:18;95969.81;;;14.60
13219;BMP180;6674;49.152;11.918;2023-07-31T03:46:44;95973.44;;;14.59
13219;BMP180;6674;49.152;11.918;2023-07-31T03:49:11;95966.72;;;14.63
13219;BMP180;6674;49.152;11.918;2023-07-31T03:51:39;95964.38;;;14.62
13219;BMP180;6674;49.152;11.918;2023-07-31T03:54:05;95972.88;;;14.57
13219;BMP180;6674;49.152;11.918;2023-07-31T03:56:33;95965.09;;;14.57
13219;BMP180;6674;49.152;11.918;2023-07-31T03:58:59;95965.88;;;14.58
13219;BMP180;6674;49.152;11.918;2023-07-31T04:01:27;95960.94;;;14.56
13219;BMP180;6674;49.152;11.918;2023-07-31T04:03:54;95961.97;;;14.55
13219;BMP180;6674;49.152;11.918;2023-07-31T04:06:23;95966.19;;;14.61
13219;BMP180;6674;49.152;11.918;2023-07-31T04:08:49;95964.88;;;14.59
13219;BMP180;6674;49.152;11.918;2023-07-31T04:11:16;95959.44;;;14.60
13219;BMP180;6674;49.152;11.918;2023-07-31T04:13:43;95955.50;;;14.58
13219;BMP180;6674;49.152;11.918;2023-07-31T04:16:09;95950.00;;;14.54
13219;BMP180;6674;49.152;11.918;2023-07-31T04:18:37;95952.28;;;14.51
13219;BMP180;6674;49.152;11.918;2023-07-31T04:21:04;95950.94;;;14.48
13219;BMP180;6674;49.152;11.918;2023-07-31T04:23:31;95950.16;;;14.48
13219;BMP180;6674;49.152;11.918;2023-07-31T04:25:57;95945.47;;;14.45
13219;BMP180;6674;49.152;11.918;2023-07-31T04:28:24;95949.06;;;14.44
13219;BMP180;6674;49.152;11.918;2023-07-31T04:30:51;95953.94;;;14.40
13219;BMP180;6674;49.152;11.918;2023-07-31T04:33:18;95948.75;;;14.40
13219;BMP180;6674;49.152;11.918;2023-07-31T04:35:50;95952.78;;;14.48
13219;BMP180;6674;49.152;11.918;2023-07-31T04:38:18;95942.16;;;14.49
13219;BMP180;6674;49.152;11.918;2023-07-31T04:40:45;95940.25;;;14.45
13219;BMP180;6674;49.152;11.918;2023-07-31T04:43:11;95939.78;;;14.48
13219;BMP180;6674;49.152;11.918;2023-07-31T04:45:38;95936.41;;;14.47
13219;BMP180;6674;49.152;11.918;2023-07-31T04:48:05;95936.25;;;14.54
13219;BMP180;6674;49.152;11.918;2023-07-31T04:50:31;95945.13;;;14.58
13219;BMP180;6674;49.152;11.918;2023-07-31T04:52:59;95936.13;;;14.65
13219;BMP180;6674;49.152;11.918;2023-07-31T04:55:26;95926.81;;;14.69
13219;BMP180;6674;49.152;11.918;2023-07-31T04:57:53;95937.34;;;14.79
13219;BMP180;6674;49.152;11.918;2023-07-31T05:00:19;95928.94;;;14.93
13219;BMP180;6674;49.152;11.918;2023-07-31T05:02:46;95929.59;;;15.05
13219;BMP180;6674;49.152;11.918;2023-07-31T05:05:13;95929.94;;;15.13
13219;BMP180;6674;49.152;11.918;2023-07-31T05:07:40;95928.53;;;15.22
13219;BMP180;6674;49.152;11.918;2023-07-31T05:10:08;95922.38;;;15.28
13219;BMP180;6674;49.152;11.918;2023-07-31T05:12:36;95931.72;;;15.29
13219;BMP180;6674;49.152;11.918;2023-07-31T05:15:04;95921.84;;;15.31
13219;BMP180;6674;49.152;11.918;2023-07-31T05:17:30;95921.84;;;15.31
13219;BMP180;6674;49.152;11.918;2023-07-31T05:19:57;95921.38;;;15.34
13219;BMP180;6674;49.152;11.918;2023-07-31T05:22:24;95914.09;;;15.36
13219;BMP180;6674;49.152;11.918;2023-07-31T05:24:50;95914.66;;;15.38
13219;BMP180;6674;49.152;11.918;2023-07-31T05:27:20;95908.50;;;15.49
13219;BMP180;6674;49.152;11.918;2023-07-31T05:29:47;95912.97;;;15.53
13219;BMP180;6674;49.152;11.918;2023-07-31T05:32:14;95907.03;;;15.58
13219;BMP180;6674;49.152;11.918;2023-07-31T05:34:40;95914.66;;;15.64
13219;BMP180;6674;49.152;11.918;2023-07-31T05:37:07;95914.72;;;15.74
13219;BMP180;6674;49.152;11.918;2023-07-31T05:39:34;95916.09;;;15.82
13219;BMP180;6674;49.152;11.918;2023-07-31T05:42:00;95909.59;;;15.84
13219;BMP180;6674;49.152;11.918;2023-07-31T05:44:28;95908.88;;;15.89
13219;BMP180;6674;49.152;11.918;2023-07-31T05:46:56;95922.94;;;15.93
13219;BMP180;6674;49.152;11.918;2023-07-31T05:49:23;95915.63;;;15.90
13219;BMP180;6674;49.152;11.918;2023-07-31T05:51:49;95917.81;;;16.02
13219;BMP180;6674;49.152;11.918;2023-07-31T05:54:16;95924.34;;;16.05
13219;BMP180;6674;49.152;11.918;2023-07-31T05:56:42;95919.91;;;16.05
13219;BMP180;6674;49.152;11.918;2023-07-31T05:59:09;95915.34;;;16.22
13219;BMP180;6674;49.152;11.918;2023-07-31T06:01:38;95923.50;;;16.31
13219;BMP180;6674;49.152;11.918;2023-07-31T06:04:04;95922.72;;;16.35
13219;BMP180;6674;49.152;11.918;2023-07-31T06:06:31;95931.63;;;16.39
13219;BMP180;6674;49.152;11.918;2023-07-31T06:08:58;95926.47;;;16.49
13219;BMP180;6674;49.152;11.918;2023-07-31T06:11:24;95919.97;;;16.51
13219;BMP180;6674;49.152;11.918;2023-07-31T06:13:52;95923.41;;;16.62
13219;BMP180;6674;49.152;11.918;2023-07-31T06:16:19;95921.38;;;16.69
13219;BMP180;6674;49.152;11.918;2023-07-31T06:18:48;95930.28;;;16.78
13219;BMP180;6674;49.152;11.918;2023-07-31T06:21:14;95914.66;;;16.78
13219;BMP180;6674;49.152;11.918;2023-07-31T06:23:41;95924.03;;;16.83
13219;BMP180;6674;49.152;11.918;2023-07-31T06:26:08;95919.91;;;16.87
13219;BMP180;6674;49.152;11.918;2023-07-31T06:28:35;95914.19;;;16.90
13219;BMP180;6674;49.152;11.918;2023-07-31T06:31:01;95920.19;;;16.96
13219;BMP180;6674;49.152;11.918;2023-07-31T06:33:28;95918.91;;;17.03
13219;BMP180;6674;49.152;11.918;2023-07-31T06:35:56;95921.00;;;17.11
13219;BMP180;6674;49.152;11.918;2023-07-31T06:38:25;95920.53;;;17.19
13219;BMP180;6674;49.152;11.918;2023-07-31T06:40:52;95912.47;;;17.26
13219;BMP180;6674;49.152;11.918;2023-07-31T06:43:19;95918.53;;;17.36
13219;BMP180;6674;49.152;11.918;2023-07-31T06:45:46;95908.63;;;17.43
13219;BMP180;6674;49.152;11.918;2023-07-31T06:48:15;95920.63;;;17.54
13219;BMP180;6674;49.152;11.918;2023-07-31T06:50:42;95914.88;;;17.67
13219;BMP180;6674;49.152;11.918;2023-07-31T06:53:09;95902.13;;;17.75
13219;BMP180;6674;49.152;11.918;2023-07-31T06:55:36;95898.72;;;17.79
13219;BMP180;6674;49.152;11.918;2023-07-31T06:58:03;95897.19;;;17.88
13219;BMP180;6674;49.152;11.918;2023-07-31T07:00:30;95901.63;;;18.03
13219;BMP180;6674;49.152;11.918;2023-07-31T07:02:57;95897.16;;;18.08
13219;BMP180;6674;49.152;11.918;2023-07-31T07:05:24;95893.28;;;18.20
13219;BMP180;6674;49.152;11.918;2023-07-31T07:07:50;95916.22;;;18.33
13219;BMP180;6674;49.152;11.918;2023-07-31T07:10:19;95901.56;;;18.47
13219;BMP180;6674;49.152;11.918;2023-07-31T07:12:46;95911.22;;;18.57
13219;BMP180;6674;49.152;11.918;2023-07-31T07:15:12;95902.56;;;18.61
13219;BMP180;6674;49.152;11.918;2023-07-31T07:17:39;95900.75;;;18.61
13219;BMP180;6674;49.152;11.918;2023-07-31T07:20:07;95895.00;;;18.64
13219;BMP180;6674;49.152;11.918;2023-07-31T07:22:33;95898.59;;;18.73
13219;BMP180;6674;49.152;11.918;2023-07-31T07:25:01;95902.78;;;18.74
13219;BMP180;6674;49.152;11.918;2023-07-31T07:27:29;95913.72;;;18.81
13219;BMP180;6674;49.152;11.918;2023-07-31T07:29:56;95906.97;;;18.80
13219;BMP180;6674;49.152;11.918;2023-07-31T07:32:23;95906.97;;;18.80
13219;BMP180;6674;49.152;11.918;2023-07-31T07:34:50;95911.38;;;18.80
13219;BMP180;6674;49.152;11.918;2023-07-31T07:37:16;95905.63;;;18.88
13219;BMP180;6674;49.152;11.918;2023-07-31T07:39:43;95904.09;;;18.72
13219;BMP180;6674;49.152;11.918;2023-07-31T07:42:10;95901.22;;;18.73
13219;BMP180;6674;49.152;11.918;2023-07-31T07:44:38;95901.75;;;18.80
13219;BMP180;6674;49.152;11.918;2023-07-31T07:47:05;95899.59;;;18.92
13219;BMP180;6674;49.152;11.918;2023-07-31T07:49:33;95896.19;;;18.97
13219;BMP180;6674;49.152;11.918;2023-07-31T07:51:59;95904.78;;;18.97
13219;BMP180;6674;49.152;11.918;2023-07-31T07:54:26;95900.09;;;19.04
13219;BMP180;6674;49.152;11.918;2023-07-31T07:56:53;95898.50;;;19.08
13219;BMP180;6674;49.152;11.918;2023-07-31T07:59:20;95903.69;;;19.18
13219;BMP180;6674;49.152;11.918;2023-07-31T08:01:48;95910.03;;;19.02
13219;BMP180;6674;49.152;11.918;2023-07-31T08:04:14;95904.53;;;18.99
13219;BMP180;6674;49.152;11.918;2023-07-31T08:06:41;95902.13;;;19.12
13219;BMP180;6674;49.152;11.918;2023-07-31T08:09:08;95911.00;;;19.21
13219;BMP180;6674;49.152;11.918;2023-07-31T08:11:34;95911.97;;;19.30
13219;BMP180;6674;49.152;11.918;2023-07-31T08:14:01;95908.09;;;19.17
13219;BMP180;6674;49.152;11.918;2023-07-31T08:16:28;95915.16;;;19.22
13219;BMP180;6674;49.152;11.918;2023-07-31T08:18:56;95906.28;;;19.23
13219;BMP180;6674;49.152;11.918;2023-07-31T08:21:22;95918.22;;;19.34
13219;BMP180;6674;49.152;11.918;2023-07-31T08:23:49;95917.16;;;19.40
13219;BMP180;6674;49.152;11.918;2023-07-31T08:26:16;95908.59;;;19.29
13219;BMP180;6674;49.152;11.918;2023-07-31T08:28:43;95906.25;;;19.28
13219;BMP180;6674;49.152;11.918;2023-07-31T08:31:09;95913.03;;;19.29
13219;BMP180;6674;49.152;11.918;2023-07-31T08:33:37;95907.28;;;19.27
13219;BMP180;6674;49.152;11.918;2023-07-31T08:36:05;95898.56;;;19.41
13219;BMP180;6674;49.152;11.918;2023-07-31T08:38:31;95899.09;;;19.38
13219;BMP180;6674;49.152;11.918;2023-07-31T08:40:58;95898.38;;;19.33
13219;BMP180;6674;49.152;11.918;2023-07-31T08:43:26;95899.34;;;19.42
13219;BMP180;6674;49.152;11.918;2023-07-31T08:45:53;95889.91;;;19.46
13219;BMP180;6674;49.152;11.918;2023-07-31T08:48:21;95904.78;;;19.55
13219;BMP180;6674;49.152;11.918;2023-07-31T08:50:48;95895.31;;;19.59
13219;BMP180;6674;49.152;11.918;2023-07-31T08:53:16;95897.09;;;19.68
13219;BMP180;6674;49.152;11.918;2023-07-31T08:55:44;95892.34;;;19.70
13219;BMP180;6674;49.152;11.918;2023-07-31T08:58:13;95896.75;;;19.80
13219;BMP180;6674;49.152;11.918;2023-07-31T09:00:40;95886.44;;;19.93
13219;BMP180;6674;49.152;11.918;2023-07-31T09:03:13;95886.31;;;20.08
13219;BMP180;6674;49.152;11.918;2023-07-31T09:05:43;95878.00;;;20.29
13219;BMP180;6674;49.152;11.918;2023-07-31T09:08:11;95878.84;;;20.25
13219;BMP180;6674;49.152;11.918;2023-07-31T09:10:41;95872.56;;;20.21
13219;BMP180;6674;49.152;11.918;2023-07-31T09:13:08;95868.47;;;20.10
13219;BMP180;6674;49.152;11.918;2023-07-31T09:15:35;95877.63;;;20.12
13219;BMP180;6674;49.152;11.918;2023-07-31T09:18:03;95870.97;;;20.25
13219;BMP180;6674;49.152;11.918;2023-07-31T09:20:30;95865.66;;;20.34
13219;BMP180;6674;49.152;11.918;2023-07-31T09:23:05;95863.47;;;20.41
13219;BMP180;6674;49.152;11.918;2023-07-31T09:25:32;95843.34;;;20.37
13219;BMP180;6674;49.152;11.918;2023-07-31T09:28:04;95864.28;;;20.60
13219;BMP180;6674;49.152;11.918;2023-07-31T09:30:32;95851.81;;;20.52
13219;BMP180;6674;49.152;11.918;2023-07-31T09:33:09;95845.34;;;20.45
13219;BMP180;6674;49.152;11.918;2023-07-31T09:35:36;95849.16;;;20.57
13219;BMP180;6674;49.152;11.918;2023-07-31T09:38:06;95861.44;;;20.57
13219;BMP180;6674;49.152;11.918;2023-07-31T09:40:34;95839.72;;;20.56
13219;BMP180;6674;49.152;11.918;2023-07-31T09:43:04;95842.41;;;20.51
13219;BMP180;6674;49.152;11.918;2023-07-31T09:45:34;95845.38;;;20.63
13219;BMP180;6674;49.152;11.918;2023-07-31T09:48:01;95841.16;;;20.44
13219;BMP180;6674;49.152;11.918;2023-07-31T09:50:29;95844.16;;;20.33
13219;BMP180;6674;49.152;11.918;2023-07-31T09:52:55;95841.34;;;20.52
13219;BMP180;6674;49.152;11.918;2023-07-31T09:55:23;95848.50;;;20.42
13219;BMP180;6674;49.152;11.918;2023-07-31T09:57:50;95842.06;;;20.58
13219;BMP180;6674;49.152;11.918;2023-07-31T10:00:18;95837.97;;;20.75
13219;BMP180;6674;49.152;11.918;2023-07-31T10:02:48;95831.78;;;20.84
13219;BMP180;6674;49.152;11.918;2023-07-31T10:05:15;95817.13;;;20.83
13219;BMP180;6674;49.152;11.918;2023-07-31T10:07:48;95825.72;;;21.07
13219;BMP180;6674;49.152;11.918;2023-07-31T10:10:18;95831.41;;;21.14
13219;BMP180;6674;49.152;11.918;2023-07-31T10:12:48;95821.38;;;21.34
13219;BMP180;6674;49.152;11.918;2023-07-31T10:15:15;95813.03;;;21.32
13219;BMP180;6674;49.152;11.918;2023-07-31T10:17:43;95807.22;;;21.35
13219;BMP180;6674;49.152;11.918;2023-07-31T10:20:11;95800.41;;;21.34
13219;BMP180;6674;49.152;11.918;2023-07-31T10:22:38;95806.50;;;21.30
13219;BMP180;6674;49.152;11.918;2023-07-31T10:25:08;95806.00;;;21.46
13219;BMP180;6674;49.152;11.918;2023-07-31T10:27:35;95809.84;;;21.35
13219;BMP180;6674;49.152;11.918;2023-07-31T10:30:04;95799.34;;;21.17
13219;BMP180;6674;49.152;11.918;2023-07-31T10:32:32;95792.84;;;21.15
13219;BMP180;6674;49.152;11.918;2023-07-31T10:35:01;95781.97;;;21.21
13219;BMP180;6674;49.152;11.918;2023-07-31T10:37:29;95774.69;;;21.00
13219;BMP180;6674;49.152;11.918;2023-07-31T10:39:58;95790.91;;;21.02
13219;BMP180;6674;49.152;11.918;2023-07-31T10:42:29;95776.75;;;21.03
13219;BMP180;6674;49.152;11.918;2023-07-31T10:44:57;95783.75;;;21.07
13219;BMP180;6674;49.152;11.918;2023-07-31T10:47:24;95778.78;;;21.24
13219;BMP180;6674;49.152;11.918;2023-07-31T10:49:51;95791.19;;;21.19
13219;BMP180;6674;49.152;11.918;2023-07-31T10:52:21;95785.31;;;21.26
13219;BMP180;6674;49.152;11.918;2023-07-31T10:55:27;95784.38;;;21.36
13219;BMP180;6674;49.152;11.918;2023-07-31T10:57:54;95790.78;;;21.48
13219;BMP180;6674;49.152;11.918;2023-07-31T11:00:23;95787.06;;;21.49
13219;BMP180;6674;49.152;11.918;2023-07-31T11:03:02;95779.53;;;21.43
13219;BMP180;6674;49.152;11.918;2023-07-31T11:05:49;95780.84;;;21.45
13219;BMP180;6674;49.152;11.918;2023-07-31T11:08:21;95775.16;;;21.57
13219;BMP180;6674;49.152;11.918;2023-07-31T11:10:49;95770.94;;;21.74
13219;BMP180;6674;49.152;11.918;2023-07-31T11:13:17;95770.53;;;21.80
13219;BMP180;6674;49.152;11.918;2023-07-31T11:15:43;95752.69;;;21.64
13219;BMP180;6674;49.152;11.918;2023-07-31T11:18:10;95756.44;;;21.76
13219;BMP180;6674;49.152;11.918;2023-07-31T11:20:37;95752.56;;;21.74
13219;BMP180;6674;49.152;11.918;2023-07-31T11:23:07;95743.88;;;21.87
13219;BMP180;6674;49.152;11.918;2023-07-31T11:25:36;95740.72;;;22.16
13219;BMP180;6674;49.152;11.918;2023-07-31T11:28:04;95740.44;;;22.18
13219;BMP180;6674;49.152;11.918;2023-07-31T11:30:31;95746.97;;;22.34
13219;BMP180;6674;49.152;11.918;2023-07-31T11:33:00;95738.59;;;22.18
13219;BMP180;6674;49.152;11.918;2023-07-31T11:35:29;95731.19;;;22.20
13219;BMP180;6674;49.152;11.918;2023-07-31T11:37:55;95722.25;;;22.21
13219;BMP180;6674;49.152;11.918;2023-07-31T11:40:22;95729.47;;;22.29
13219;BMP180;6674;49.152;11.918;2023-07-31T11:42:56;95713.50;;;22.39
13219;BMP180;6674;49.152;11.918;2023-07-31T11:45:24;95713.84;;;22.59
13219;BMP180;6674;49.152;11.918;2023-07-31T11:47:52;95709.16;;;22.56
13219;BMP180;6674;49.152;11.918;2023-07-31T11:50:18;95708.78;;;22.50
13219;BMP180;6674;49.152;11.918;2023-07-31T11:52:46;95709.19;;;22.43
13219;BMP180;6674;49.152;11.918;2023-07-31T11:55:14;95708.50;;;22.11
13219;BMP180;6674;49.152;11.918;2023-07-31T11:57:43;95703.41;;;22.19
13219;BMP180;6674;49.152;11.918;2023-07-31T12:00:14;95698.22;;;22.14
13219;BMP180;6674;49.152;11.918;2023-07-31T12:02:42;95693.25;;;22.26
13219;BMP180;6674;49.152;11.918;2023-07-31T12:05:10;95693.22;;;22.40
13219;BMP180;6674;49.152;11.918;2023-07-31T12:07:47;95695.94;;;22.48
13219;BMP180;6674;49.152;11.918;2023-07-31T12:10:27;95686.81;;;22.32
13219;BMP180;6674;49.152;11.918;2023-07-31T12:13:02;95686.13;;;22.40
13219;BMP180;6674;49.152;11.918;2023-07-31T12:15:32;95676.13;;;22.42
13219;BMP180;6674;49.152;11.918;2023-07-31T12:17:59;95679.72;;;22.33
13219;BMP180;6674;49.152;11.918;2023-07-31T12:20:26;95686.00;;;22.45
13219;BMP180;6674;49.152;11.918;2023-07-31T12:22:56;95691.16;;;22.50
13219;BMP180;6674;49.152;11.918;2023-07-31T12:25:22;95681.34;;;22.55
13219;BMP180;6674;49.152;11.918;2023-07-31T12:27:50;95676.63;;;22.66
13219;BMP180;6674;49.152;11.918;2023-07-31T12:30:27;95675.75;;;22.70
13219;BMP180;6674;49.152;11.918;2023-07-31T12:32:55;95676.63;;;22.66
13219;BMP180;6674;49.152;11.918;2023-07-31T12:35:22;95671.00;;;22.59
13219;BMP180;6674;49.152;11.918;2023-07-31T12:37:49;95673.16;;;22.57
13219;BMP180;6674;49.152;11.918;2023-07-31T12:40:16;95672.88;;;22.80
13219;BMP180;6674;49.152;11.918;2023-07-31T12:42:42;95678.78;;;22.99
13219;BMP180;6674;49.152;11.918;2023-07-31T12:45:09;95675.84;;;23.22
13219;BMP180;6674;49.152;11.918;2023-07-31T12:47:36;95671.06;;;23.02
13219;BMP180;6674;49.152;11.918;2023-07-31T12:50:05;95670.91;;;22.86
13219;BMP180;6674;49.152;11.918;2023-07-31T12:52:32;95654.31;;;22.98
13219;BMP180;6674;49.152;11.918;2023-07-31T12:54:59;95655.03;;;23.12
13219;BMP180;6674;49.152;11.918;2023-07-31T12:57:25;95663.25;;;23.11
13219;BMP180;6674;49.152;11.918;2023-07-31T12:59:52;95647.88;;;23.04
13219;BMP180;6674;49.152;11.918;2023-07-31T13:02:20;95640.53;;;22.93
13219;BMP180;6674;49.152;11.918;2023-07-31T13:04:46;95645.72;;;23.06
13219;BMP180;6674;49.152;11.918;2023-07-31T13:07:15;95647.88;;;23.04
13219;BMP180;6674;49.152;11.918;2023-07-31T13:09:42;95628.13;;;23.15
13219;BMP180;6674;49.152;11.918;2023-07-31T13:12:08;95637.16;;;23.23
13219;BMP180;6674;49.152;11.918;2023-07-31T13:14:35;95625.72;;;23.27
13219;BMP180;6674;49.152;11.918;2023-07-31T13:17:02;95629.84;;;23.20
13219;BMP180;6674;49.152;11.918;2023-07-31T13:19:29;95618.63;;;23.06
13219;BMP180;6674;49.152;11.918;2023-07-31T13:21:56;95603.50;;;22.90
13219;BMP180;6674;49.152;11.918;2023-07-31T13:24:24;95608.63;;;23.16
13219;BMP180;6674;49.152;11.918;2023-07-31T13:26:51;95613.47;;;23.23
13219;BMP180;6674;49.152;11.918;2023-07-31T13:29:18;95607.81;;;23.07
13219;BMP180;6674;49.152;11.918;2023-07-31T13:31:44;95604.03;;;23.00
13219;BMP180;6674;49.152;11.918;2023-07-31T13:34:11;95607.78;;;23.29
13219;BMP180;6674;49.152;11.918;2023-07-31T13:36:38;95595.31;;;23.13
13219;BMP180;6674;49.152;11.918;2023-07-31T13:39:04;95599.84;;;23.21
13219;BMP180;6674;49.152;11.918;2023-07-31T13:41:33;95592.50;;;23.09
13219;BMP180;6674;49.152;11.918;2023-07-31T13:43:59;95593.22;;;23.01
13219;BMP180;6674;49.152;11.918;2023-07-31T13:46:26;95593.09;;;23.06
13219;BMP180;6674;49.152;11.918;2023-07-31T13:48:53;95591.19;;;22.98
13219;BMP180;6674;49.152;11.918;2023-07-31T13:51:21;95588.31;;;22.87
13219;BMP180;6674;49.152;11.918;2023-07-31T13:53:47;95575.84;;;22.92
13219;BMP180;6674;49.152;11.918;2023-07-31T13:56:14;95582.69;;;23.01
13219;BMP180;6674;49.152;11.918;2023-07-31T13:58:44;95578.63;;;23.17
13219;BMP180;6674;49.152;11.918;2023-07-31T14:01:10;95577.47;;;23.32
13219;BMP180;6674;49.152;11.918;2023-07-31T14:03:37;95569.91;;;23.47
13219;BMP180;6674;49.152;11.918;2023-07-31T14:06:05;95565.47;;;23.56
13219;BMP180;6674;49.152;11.918;2023-07-31T14:08:33;95555.56;;;23.53
13219;BMP180;6674;49.152;11.918;2023-07-31T14:11:01;95556.59;;;23.43